Flight Track Log - Related Links

Times and Time Zones

All times are in EDT time to prevent confusion due to time zone crossing. See the ASQ5738 flight status page for this flight to view local times or setup timezone preferences in your user account.

Time Position Orientation Groundspeed Altitude Reporting Facility
EDT Latitude Longitude Course Direction KTS MPH feet Rate Location/Type
Wed 10:18:34 AM 42.7256 -73.8053 198° South 150 173 1,100  Level Boston Center
Wed 10:19:05 AM 42.7047 -73.8133 196° South 164 189 1,800 2,110 Climbing Boston Center
Wed 10:20:05 AM 42.7122 -73.8869 278° West 241 277 4,300 2,288 Climbing Boston Center
Wed 10:21:00 AM 42.5292 -74.0288 196° South  Level Estimated
Wed 10:21:03 AM 42.7572 -73.9417 318° Northwest 266 306 6,300  Level Boston Center
Wed 10:22:00 AM 42.4400 -73.9978 166° South  Level FlightAware Approximate
Wed 10:22:03 AM 42.8125 -74.0194 314° West 279 321 8,300  Level Boston Center
Wed 10:23:00 AM 42.3675 -74.0746 198° South  Level Estimated
Wed 10:23:03 AM 42.8736 -74.1117 312° West 290 334 11,100  Level Boston Center
Wed 10:24:03 AM 42.8889 -74.2197 281° West 300 345 12,700 1,450 Climbing Boston Center
Wed 10:25:03 AM 42.8617 -74.3408 253° West 327 376 14,000 1,250 Climbing Boston Center
Wed 10:26:03 AM 42.7878 -74.4008 211° Southwest 328 377 15,200 1,450 Climbing Boston Center
Wed 10:27:03 AM 42.6906 -74.4767 210° Southwest 358 412 16,900 1,400 Climbing Boston Center
Wed 10:28:03 AM 42.6089 -74.4994 192° South 363 418 18,000 950 Climbing Boston Center
Wed 10:29:03 AM 42.5475 -74.4353 142° Southeast 326 375 18,800 950 Climbing Boston Center
Wed 10:30:03 AM 42.4639 -74.3314 137° Southeast 330 380 19,900 950 Climbing Boston Center
Wed 10:31:03 AM 42.4047 -74.2564 137° Southeast 343 395 20,700 1,100 Climbing Boston Center
Wed 10:32:03 AM 42.3106 -74.1331 136° Southeast 363 418 22,100 1,100 Climbing Boston Center
Wed 10:33:03 AM 42.2328 -74.0467 141° Southeast 363 418 22,900 733 Climbing Boston Center
Wed 10:35:03 AM 42.0242 -74.0611 183° South 361 415 24,300 658 Climbing Boston Center
Wed 10:36:42 AM 41.8569 -74.1381 199° South 379 436 25,300 600 Climbing New York Center
Wed 10:37:43 AM 41.7514 -74.1881 199° South 390 449 25,900 350 Climbing New York Center
Wed 10:38:42 AM 41.6481 -74.2356 199° South 395 455 26,000 50 Climbing New York Center
Wed 10:39:42 AM 41.5531 -74.2833 201° Southwest 400 460 26,000  Level New York Center
Wed 10:40:43 AM 41.4453 -74.3358 200° South 405 466 26,000  Level New York Center
Wed 10:41:43 AM 41.3333 -74.3878 199° South 418 481 26,000  Level New York Center
Wed 10:42:41 AM 41.2122 -74.4642 205° Southwest 431 496 26,000 -50 Level New York Center
Wed 10:43:42 AM 41.1372 -74.5894 232° Southwest 431 496 25,900  Descending New York Center
Wed 10:44:43 AM 41.0603 -74.7144 231° Southwest 431 496 26,000 50 Climbing New York Center
Wed 10:45:41 AM 40.9894 -74.8422 234° Southwest 437 503 26,000  Level New York Center
Wed 10:46:41 AM 40.9122 -74.9639 230° Southwest 437 503 26,000 -50 Level New York Center
Wed 10:47:41 AM 40.8411 -75.0828 232° Southwest 430 495 25,900  Descending New York Center
Wed 10:48:43 AM 40.7631 -75.1683 220° Southwest 382 440 26,000  Climbing New York Center
Wed 10:49:43 AM 40.6769 -75.2450 214° Southwest 382 440 25,900 -712 Descending New York Center
Wed 10:50:41 AM 40.6075 -75.3661 233° Southwest 393 452 24,600 -1,361 Descending New York Center
Wed 10:51:42 AM 40.5397 -75.5036 237° Southwest 416 479 23,200 -1,438 Descending New York Center
Wed 10:52:42 AM 40.4717 -75.6356 236° Southwest 441 507 21,700 -1,550 Descending New York Center
Wed 10:53:42 AM 40.4036 -75.7669 236° Southwest 446 513 20,100 -843 Descending New York Center
Wed 10:54:43 AM 40.3378 -75.8956 236° Southwest 445 512 20,000 -50 Descending New York Center
Wed 10:55:43 AM 40.2656 -76.0181 232° Southwest 438 504 20,000 -153 Level New York Center
Wed 10:56:41 AM 40.2017 -76.1411 236° Southwest 427 491 19,700 -661 Descending New York Center
Wed 10:57:41 AM 40.1400 -76.2583 235° Southwest 412 474 18,700 -934 Descending New York Center
Wed 10:58:43 AM 40.0894 -76.3631 238° Southwest 389 448 17,800 -850 Descending New York Center
Wed 10:59:41 AM 40.0292 -76.4883 238° Southwest 383 441 17,000 -830 Descending New York Center
Wed 11:01:22 AM 39.9333 -76.6833 237° Southwest 399 459 15,600 -741 Descending Potomac TRACON
Wed 11:02:23 AM 39.8833 -76.8167 244° Southwest 406 467 15,000 -295 Descending Potomac TRACON
Wed 11:03:24 AM 39.8167 -76.9333 233° Southwest 393 452 15,000 -298 Level Potomac TRACON
Wed 11:04:24 AM 39.7667 -77.0333 237° Southwest 318 366 14,400 -1,050 Descending Potomac TRACON
Wed 11:05:24 AM 39.7333 -77.1333 247° West 307 353 12,900 -1,421 Descending Potomac TRACON
Wed 11:06:18 AM 39.6833 -77.2167 232° Southwest 298 343 11,700 -1,316 Descending Potomac TRACON
Wed 11:07:18 AM 39.6500 -77.3000 243° Southwest 289 333 10,400 -850 Descending Potomac TRACON
Wed 11:08:18 AM 39.6167 -77.3833 243° Southwest 260 299 10,000 -250 Descending Potomac TRACON
Wed 11:09:18 AM 39.5833 -77.4500 237° Southwest 243 280 9,900 -600 Descending Potomac TRACON
Wed 11:10:18 AM 39.5167 -77.4500 180° South 226 260 8,800 -1,211 Descending Potomac TRACON
Wed 11:11:12 AM 39.4500 -77.4500 180° South 229 264 7,600 -1,263 Descending Potomac TRACON
Wed 11:12:12 AM 39.4000 -77.4500 180° South 229 264 6,400 -800 Descending Potomac TRACON
Wed 11:13:12 AM 39.3333 -77.4500 180° South 219 252 6,000 -200 Descending Potomac TRACON
Wed 11:14:12 AM 39.2667 -77.4500 180° South 218 251 6,000 -417 Level Potomac TRACON
Wed 11:15:07 AM 39.2167 -77.4500 180° South 220 253 5,200 -991 Descending Potomac TRACON
Wed 11:16:07 AM 39.1500 -77.4500 180° South 199 229 4,100 -1,100 Descending Potomac TRACON

Login

Don't have an account? Register now (free) for customized features, flight alerts, and more!